NCAR-RAP Real-Time Weather Data

Output produced by METARs form (08 May 2021  00:39 UTC)
found at http://weather.rap.ucar.edu/surface/
 
KPDT 072353Z 25025G38KT 10SM FEW070 14/M04 A3013 RMK AO2 PK WND 27040/2342 SLP199 T01441039 10161 20122 53002
KPDT 072253Z 25025G37KT 10SM FEW075 FEW090 15/M06 A3013 RMK AO2 PK WND 28042/2240 SLP198 T01501061
KPDT 072153Z 27028G37KT 10SM FEW070 BKN100 16/M04 A3012 RMK AO2 PK WND 27037/2153 SLP194 T01561039
KPDT 072053Z 25019G32KT 10SM FEW065 BKN100 13/M02 A3013 RMK AO2 PK WND 27034/2015 SLP197 T01331022 56005
KPDT 071953Z 27020G33KT 10SM FEW065 FEW100 13/M04 A3013 RMK AO2 PK WND 27035/1923 SLP198 T01331039
KPDT 071853Z 28019G33KT 10SM FEW055 14/M02 A3014 RMK AO2 PK WND 27033/1846 SLP199 T01391017
KPDT 071753Z 26015KT 10SM CLR 13/M01 A3014 RMK AO2 PK WND 25026/1737 SLP201 T01281011 10133 20039 58005
KPDT 071653Z 25012G24KT 10SM SCT045 12/00 A3015 RMK AO2 SLP204 T01170000
KPDT 071553Z 28013G21KT 10SM FEW042 SCT050 11/02 A3016 RMK AO2 SLP208 T01060017
KPDT 071453Z 27017G24KT 10SM CLR 09/01 A3016 RMK AO2 SLP207 T00890006 52010
KPDT 071353Z 27010KT 10SM CLR 08/00 A3015 RMK AO2 SLP204 T00780000
KPDT 071253Z 28006KT 10SM CLR 04/01 A3013 RMK AO2 SLP198 T00440006
KPDT 071153Z AUTO 25012KT 10SM CLR 07/01 A3013 RMK AO2 SLP194 T00720011 10128 20072 53010